sensor_id;sensor_type;location;lat;lon;timestamp;temperature;humidity
10278;DHT22;5184;51.376;7.148;2023-09-19T00:01:49;15.10;99.90
10278;DHT22;5184;51.376;7.148;2023-09-19T00:04:16;15.10;99.90
10278;DHT22;5184;51.376;7.148;2023-09-19T00:06:43;15.10;99.90
10278;DHT22;5184;51.376;7.148;2023-09-19T00:09:10;15.00;99.90
10278;DHT22;5184;51.376;7.148;2023-09-19T00:11:37;15.00;99.90
10278;DHT22;5184;51.376;7.148;2023-09-19T00:14:04;15.00;99.90
10278;DHT22;5184;51.376;7.148;2023-09-19T00:16:31;14.90;99.90
10278;DHT22;5184;51.376;7.148;2023-09-19T00:18:58;14.90;99.90
10278;DHT22;5184;51.376;7.148;2023-09-19T00:21:24;14.90;99.90
10278;DHT22;5184;51.376;7.148;2023-09-19T00:23:51;14.90;99.90
10278;DHT22;5184;51.376;7.148;2023-09-19T00:26:18;14.90;99.90
10278;DHT22;5184;51.376;7.148;2023-09-19T00:28:44;14.80;99.90
10278;DHT22;5184;51.376;7.148;2023-09-19T00:31:11;14.80;99.90
10278;DHT22;5184;51.376;7.148;2023-09-19T00:33:39;14.70;99.90
10278;DHT22;5184;51.376;7.148;2023-09-19T00:36:05;14.70;99.90
10278;DHT22;5184;51.376;7.148;2023-09-19T00:38:32;14.80;99.90
10278;DHT22;5184;51.376;7.148;2023-09-19T00:40:59;14.70;99.90
10278;DHT22;5184;51.376;7.148;2023-09-19T00:43:25;14.70;99.90
10278;DHT22;5184;51.376;7.148;2023-09-19T00:45:52;14.70;99.90
10278;DHT22;5184;51.376;7.148;2023-09-19T00:48:20;14.70;99.90
10278;DHT22;5184;51.376;7.148;2023-09-19T00:50:47;14.60;99.90
10278;DHT22;5184;51.376;7.148;2023-09-19T00:53:14;14.60;99.90
10278;DHT22;5184;51.376;7.148;2023-09-19T00:55:40;14.60;99.90
10278;DHT22;5184;51.376;7.148;2023-09-19T00:58:07;14.60;99.90
10278;DHT22;5184;51.376;7.148;2023-09-19T01:00:33;14.60;99.90
10278;DHT22;5184;51.376;7.148;2023-09-19T01:03:00;14.60;99.90
10278;DHT22;5184;51.376;7.148;2023-09-19T01:05:27;14.60;99.90
10278;DHT22;5184;51.376;7.148;2023-09-19T01:07:55;14.60;99.90
10278;DHT22;5184;51.376;7.148;2023-09-19T01:10:22;14.60;99.90
10278;DHT22;5184;51.376;7.148;2023-09-19T01:16:09;14.60;99.90
10278;DHT22;5184;51.376;7.148;2023-09-19T01:18:21;14.60;99.90
10278;DHT22;5184;51.376;7.148;2023-09-19T01:20:53;14.60;99.90
10278;DHT22;5184;51.376;7.148;2023-09-19T01:23:21;14.60;99.90
10278;DHT22;5184;51.376;7.148;2023-09-19T01:25:57;14.60;99.90
10278;DHT22;5184;51.376;7.148;2023-09-19T01:28:53;14.60;99.90
10278;DHT22;5184;51.376;7.148;2023-09-19T01:31:03;14.60;99.90
10278;DHT22;5184;51.376;7.148;2023-09-19T01:34:03;14.50;99.90
10278;DHT22;5184;51.376;7.148;2023-09-19T01:36:30;14.50;99.90
10278;DHT22;5184;51.376;7.148;2023-09-19T01:38:55;14.50;99.90
10278;DHT22;5184;51.376;7.148;2023-09-19T01:41:26;14.50;99.90
10278;DHT22;5184;51.376;7.148;2023-09-19T01:43:49;14.40;99.90
10278;DHT22;5184;51.376;7.148;2023-09-19T01:46:19;14.40;99.90
10278;DHT22;5184;51.376;7.148;2023-09-19T01:48:50;14.40;99.90
10278;DHT22;5184;51.376;7.148;2023-09-19T01:51:14;14.40;99.90
10278;DHT22;5184;51.376;7.148;2023-09-19T01:56:16;14.40;99.90
10278;DHT22;5184;51.376;7.148;2023-09-19T01:58:41;14.40;99.90
10278;DHT22;5184;51.376;7.148;2023-09-19T02:01:07;14.40;99.90
10278;DHT22;5184;51.376;7.148;2023-09-19T02:03:33;14.10;99.90
10278;DHT22;5184;51.376;7.148;2023-09-19T02:06:00;14.40;99.90
10278;DHT22;5184;51.376;7.148;2023-09-19T02:08:28;14.40;99.90
10278;DHT22;5184;51.376;7.148;2023-09-19T02:10:55;14.40;99.90
10278;DHT22;5184;51.376;7.148;2023-09-19T02:13:22;14.40;99.90
10278;DHT22;5184;51.376;7.148;2023-09-19T02:15:48;14.40;99.90
10278;DHT22;5184;51.376;7.148;2023-09-19T02:18:15;14.40;99.90
10278;DHT22;5184;51.376;7.148;2023-09-19T02:20:41;14.40;99.90
10278;DHT22;5184;51.376;7.148;2023-09-19T02:23:09;14.30;99.90
10278;DHT22;5184;51.376;7.148;2023-09-19T02:25:35;14.30;99.90
10278;DHT22;5184;51.376;7.148;2023-09-19T02:28:02;14.30;99.90
10278;DHT22;5184;51.376;7.148;2023-09-19T02:30:29;14.40;99.90
10278;DHT22;5184;51.376;7.148;2023-09-19T02:32:55;14.40;99.90
10278;DHT22;5184;51.376;7.148;2023-09-19T02:35:22;14.40;99.90
10278;DHT22;5184;51.376;7.148;2023-09-19T02:37:48;14.40;99.90
10278;DHT22;5184;51.376;7.148;2023-09-19T02:40:16;14.40;99.90
10278;DHT22;5184;51.376;7.148;2023-09-19T02:42:46;14.40;99.90
10278;DHT22;5184;51.376;7.148;2023-09-19T02:45:12;14.40;99.90
10278;DHT22;5184;51.376;7.148;2023-09-19T02:47:41;14.40;99.90
10278;DHT22;5184;51.376;7.148;2023-09-19T02:50:08;14.40;99.90
10278;DHT22;5184;51.376;7.148;2023-09-19T02:52:35;14.30;99.90
10278;DHT22;5184;51.376;7.148;2023-09-19T02:55:02;14.30;99.90
10278;DHT22;5184;51.376;7.148;2023-09-19T02:57:28;14.30;99.90
10278;DHT22;5184;51.376;7.148;2023-09-19T02:59:55;14.30;99.90
10278;DHT22;5184;51.376;7.148;2023-09-19T03:02:22;14.20;99.90
10278;DHT22;5184;51.376;7.148;2023-09-19T03:04:49;14.20;99.90
10278;DHT22;5184;51.376;7.148;2023-09-19T03:07:16;14.20;99.90
10278;DHT22;5184;51.376;7.148;2023-09-19T03:09:44;14.20;99.90
10278;DHT22;5184;51.376;7.148;2023-09-19T03:12:11;14.20;99.90
10278;DHT22;5184;51.376;7.148;2023-09-19T03:14:38;14.20;99.90
10278;DHT22;5184;51.376;7.148;2023-09-19T03:17:04;14.20;99.90
10278;DHT22;5184;51.376;7.148;2023-09-19T03:19:31;14.20;99.90
10278;DHT22;5184;51.376;7.148;2023-09-19T03:21:59;14.20;99.90
10278;DHT22;5184;51.376;7.148;2023-09-19T03:24:26;14.20;99.90
10278;DHT22;5184;51.376;7.148;2023-09-19T03:26:53;14.10;99.90
10278;DHT22;5184;51.376;7.148;2023-09-19T03:29:20;14.10;99.90
10278;DHT22;5184;51.376;7.148;2023-09-19T03:31:47;14.10;99.90
10278;DHT22;5184;51.376;7.148;2023-09-19T03:34:13;14.10;99.90
10278;DHT22;5184;51.376;7.148;2023-09-19T03:36:40;14.10;99.90
10278;DHT22;5184;51.376;7.148;2023-09-19T03:39:06;14.10;99.90
10278;DHT22;5184;51.376;7.148;2023-09-19T03:41:33;14.00;99.90
10278;DHT22;5184;51.376;7.148;2023-09-19T03:44:00;14.00;99.90
10278;DHT22;5184;51.376;7.148;2023-09-19T03:46:27;14.00;99.90
10278;DHT22;5184;51.376;7.148;2023-09-19T03:48:54;14.00;99.90
10278;DHT22;5184;51.376;7.148;2023-09-19T03:51:20;14.00;99.90
10278;DHT22;5184;51.376;7.148;2023-09-19T03:53:47;14.00;99.90
10278;DHT22;5184;51.376;7.148;2023-09-19T03:56:13;13.90;99.90
10278;DHT22;5184;51.376;7.148;2023-09-19T03:58:41;13.90;99.90
10278;DHT22;5184;51.376;7.148;2023-09-19T04:01:08;13.80;99.90
10278;DHT22;5184;51.376;7.148;2023-09-19T04:03:35;13.80;99.90
10278;DHT22;5184;51.376;7.148;2023-09-19T04:06:17;13.80;99.90
10278;DHT22;5184;51.376;7.148;2023-09-19T04:08:44;13.80;99.90
10278;DHT22;5184;51.376;7.148;2023-09-19T04:11:10;13.80;99.90
10278;DHT22;5184;51.376;7.148;2023-09-19T04:13:37;13.80;99.90
10278;DHT22;5184;51.376;7.148;2023-09-19T04:16:03;13.80;99.90
10278;DHT22;5184;51.376;7.148;2023-09-19T04:18:30;13.80;99.90
10278;DHT22;5184;51.376;7.148;2023-09-19T04:20:57;13.80;99.90
10278;DHT22;5184;51.376;7.148;2023-09-19T04:23:23;13.70;99.90
10278;DHT22;5184;51.376;7.148;2023-09-19T04:25:50;13.70;99.90
10278;DHT22;5184;51.376;7.148;2023-09-19T04:28:16;13.70;99.90
10278;DHT22;5184;51.376;7.148;2023-09-19T04:30:43;13.70;99.90
10278;DHT22;5184;51.376;7.148;2023-09-19T04:33:10;13.70;99.90
10278;DHT22;5184;51.376;7.148;2023-09-19T04:35:36;13.70;99.90
10278;DHT22;5184;51.376;7.148;2023-09-19T04:38:04;13.60;99.90
10278;DHT22;5184;51.376;7.148;2023-09-19T04:40:31;13.60;99.90
10278;DHT22;5184;51.376;7.148;2023-09-19T04:42:57;13.60;99.90
10278;DHT22;5184;51.376;7.148;2023-09-19T04:45:24;13.60;99.90
10278;DHT22;5184;51.376;7.148;2023-09-19T04:47:51;13.60;99.90
10278;DHT22;5184;51.376;7.148;2023-09-19T04:50:17;13.60;99.90
10278;DHT22;5184;51.376;7.148;2023-09-19T04:52:44;13.60;99.90
10278;DHT22;5184;51.376;7.148;2023-09-19T04:55:12;13.60;99.90
10278;DHT22;5184;51.376;7.148;2023-09-19T04:57:38;13.50;99.90
10278;DHT22;5184;51.376;7.148;2023-09-19T05:00:06;13.60;99.90
10278;DHT22;5184;51.376;7.148;2023-09-19T05:02:32;13.60;99.90
10278;DHT22;5184;51.376;7.148;2023-09-19T05:04:59;13.60;99.90
10278;DHT22;5184;51.376;7.148;2023-09-19T05:07:25;13.60;99.90
10278;DHT22;5184;51.376;7.148;2023-09-19T05:09:52;13.60;99.90
10278;DHT22;5184;51.376;7.148;2023-09-19T05:12:19;13.60;99.90
10278;DHT22;5184;51.376;7.148;2023-09-19T05:14:46;13.60;99.90
10278;DHT22;5184;51.376;7.148;2023-09-19T05:17:13;13.60;99.90
10278;DHT22;5184;51.376;7.148;2023-09-19T05:19:39;13.70;99.90
10278;DHT22;5184;51.376;7.148;2023-09-19T05:22:06;13.70;99.90
10278;DHT22;5184;51.376;7.148;2023-09-19T05:24:34;13.60;99.90
10278;DHT22;5184;51.376;7.148;2023-09-19T05:27:00;13.70;99.90
10278;DHT22;5184;51.376;7.148;2023-09-19T05:29:27;13.70;99.90
10278;DHT22;5184;51.376;7.148;2023-09-19T05:31:54;13.70;99.90
10278;DHT22;5184;51.376;7.148;2023-09-19T05:34:21;13.60;99.90
10278;DHT22;5184;51.376;7.148;2023-09-19T05:36:48;13.60;99.90
10278;DHT22;5184;51.376;7.148;2023-09-19T05:39:15;13.60;99.90
10278;DHT22;5184;51.376;7.148;2023-09-19T05:41:41;13.60;99.90
10278;DHT22;5184;51.376;7.148;2023-09-19T05:44:08;13.60;99.90
10278;DHT22;5184;51.376;7.148;2023-09-19T05:46:35;13.70;99.90
10278;DHT22;5184;51.376;7.148;2023-09-19T05:49:02;13.70;99.90
10278;DHT22;5184;51.376;7.148;2023-09-19T05:51:30;13.70;99.90
10278;DHT22;5184;51.376;7.148;2023-09-19T05:53:56;13.70;99.90
10278;DHT22;5184;51.376;7.148;2023-09-19T05:56:23;13.70;99.90
10278;DHT22;5184;51.376;7.148;2023-09-19T05:58:50;13.80;99.90
10278;DHT22;5184;51.376;7.148;2023-09-19T06:01:16;13.80;99.90
10278;DHT22;5184;51.376;7.148;2023-09-19T06:03:44;13.90;99.90
10278;DHT22;5184;51.376;7.148;2023-09-19T06:06:11;13.90;99.90
10278;DHT22;5184;51.376;7.148;2023-09-19T06:08:38;14.00;99.90
10278;DHT22;5184;51.376;7.148;2023-09-19T06:11:06;14.00;99.90
10278;DHT22;5184;51.376;7.148;2023-09-19T06:13:32;14.00;99.90
10278;DHT22;5184;51.376;7.148;2023-09-19T06:15:59;14.00;99.90
10278;DHT22;5184;51.376;7.148;2023-09-19T06:18:25;14.00;99.90
10278;DHT22;5184;51.376;7.148;2023-09-19T06:20:53;14.10;99.90
10278;DHT22;5184;51.376;7.148;2023-09-19T06:23:20;14.10;99.90
10278;DHT22;5184;51.376;7.148;2023-09-19T06:25:48;14.10;99.90
10278;DHT22;5184;51.376;7.148;2023-09-19T06:28:14;14.10;99.90
10278;DHT22;5184;51.376;7.148;2023-09-19T06:30:41;14.10;99.90
10278;DHT22;5184;51.376;7.148;2023-09-19T06:33:07;14.20;99.90
10278;DHT22;5184;51.376;7.148;2023-09-19T06:35:34;14.20;99.90
10278;DHT22;5184;51.376;7.148;2023-09-19T06:38:03;14.30;99.90
10278;DHT22;5184;51.376;7.148;2023-09-19T06:40:29;14.30;99.90
10278;DHT22;5184;51.376;7.148;2023-09-19T06:42:56;14.30;99.90
10278;DHT22;5184;51.376;7.148;2023-09-19T06:45:23;14.30;99.90
10278;DHT22;5184;51.376;7.148;2023-09-19T06:47:50;14.30;99.90
10278;DHT22;5184;51.376;7.148;2023-09-19T06:50:17;14.30;99.90
10278;DHT22;5184;51.376;7.148;2023-09-19T06:52:45;14.30;99.90
10278;DHT22;5184;51.376;7.148;2023-09-19T06:55:11;14.30;99.90
10278;DHT22;5184;51.376;7.148;2023-09-19T06:57:38;14.40;99.90
10278;DHT22;5184;51.376;7.148;2023-09-19T07:00:05;14.50;99.90
10278;DHT22;5184;51.376;7.148;2023-09-19T07:02:32;14.50;99.90
10278;DHT22;5184;51.376;7.148;2023-09-19T07:04:59;14.50;99.90
10278;DHT22;5184;51.376;7.148;2023-09-19T07:07:26;14.60;99.90
10278;DHT22;5184;51.376;7.148;2023-09-19T07:09:53;14.60;99.90
10278;DHT22;5184;51.376;7.148;2023-09-19T07:12:19;14.60;99.90
10278;DHT22;5184;51.376;7.148;2023-09-19T07:14:46;14.70;99.90
10278;DHT22;5184;51.376;7.148;2023-09-19T07:17:13;14.70;99.90
10278;DHT22;5184;51.376;7.148;2023-09-19T07:19:40;14.80;99.90
10278;DHT22;5184;51.376;7.148;2023-09-19T07:22:07;14.80;99.90
10278;DHT22;5184;51.376;7.148;2023-09-19T07:24:34;14.80;99.90
10278;DHT22;5184;51.376;7.148;2023-09-19T07:27:00;14.80;99.90
10278;DHT22;5184;51.376;7.148;2023-09-19T07:29:28;14.90;99.90
10278;DHT22;5184;51.376;7.148;2023-09-19T07:31:55;14.90;99.90
10278;DHT22;5184;51.376;7.148;2023-09-19T07:34:22;14.90;99.90
10278;DHT22;5184;51.376;7.148;2023-09-19T07:36:49;14.90;99.90
10278;DHT22;5184;51.376;7.148;2023-09-19T07:39:15;14.90;99.90
10278;DHT22;5184;51.376;7.148;2023-09-19T07:41:42;15.00;99.90
10278;DHT22;5184;51.376;7.148;2023-09-19T07:44:09;15.10;99.90
10278;DHT22;5184;51.376;7.148;2023-09-19T07:46:36;15.10;99.90
10278;DHT22;5184;51.376;7.148;2023-09-19T07:49:03;15.10;99.90
10278;DHT22;5184;51.376;7.148;2023-09-19T07:51:29;15.10;99.90
10278;DHT22;5184;51.376;7.148;2023-09-19T07:53:56;15.10;99.90
10278;DHT22;5184;51.376;7.148;2023-09-19T07:56:23;15.20;99.90
10278;DHT22;5184;51.376;7.148;2023-09-19T07:58:51;15.20;99.90
10278;DHT22;5184;51.376;7.148;2023-09-19T08:01:18;15.20;99.90
10278;DHT22;5184;51.376;7.148;2023-09-19T08:03:45;15.20;99.90
10278;DHT22;5184;51.376;7.148;2023-09-19T08:06:11;15.30;99.90
10278;DHT22;5184;51.376;7.148;2023-09-19T08:08:38;15.30;99.90
10278;DHT22;5184;51.376;7.148;2023-09-19T08:11:05;15.30;99.90
10278;DHT22;5184;51.376;7.148;2023-09-19T08:13:33;15.30;99.90
10278;DHT22;5184;51.376;7.148;2023-09-19T08:16:01;15.20;99.90
10278;DHT22;5184;51.376;7.148;2023-09-19T08:18:28;15.30;99.90
10278;DHT22;5184;51.376;7.148;2023-09-19T08:20:55;15.30;99.90
10278;DHT22;5184;51.376;7.148;2023-09-19T08:23:21;15.40;99.90
10278;DHT22;5184;51.376;7.148;2023-09-19T08:25:48;15.30;99.90
10278;DHT22;5184;51.376;7.148;2023-09-19T08:28:15;15.40;99.90
10278;DHT22;5184;51.376;7.148;2023-09-19T08:30:42;15.40;99.90
10278;DHT22;5184;51.376;7.148;2023-09-19T08:33:10;15.40;99.90
10278;DHT22;5184;51.376;7.148;2023-09-19T08:35:37;15.40;99.90
10278;DHT22;5184;51.376;7.148;2023-09-19T08:38:03;15.50;99.90
10278;DHT22;5184;51.376;7.148;2023-09-19T08:40:30;15.60;99.90
10278;DHT22;5184;51.376;7.148;2023-09-19T08:42:58;15.70;99.90
10278;DHT22;5184;51.376;7.148;2023-09-19T08:45:26;15.70;99.90
10278;DHT22;5184;51.376;7.148;2023-09-19T08:48:00;15.70;99.90
10278;DHT22;5184;51.376;7.148;2023-09-19T08:50:26;15.70;99.90
10278;DHT22;5184;51.376;7.148;2023-09-19T08:52:51;15.80;99.90
10278;DHT22;5184;51.376;7.148;2023-09-19T08:55:18;15.90;99.90
10278;DHT22;5184;51.376;7.148;2023-09-19T08:57:44;16.00;99.90
10278;DHT22;5184;51.376;7.148;2023-09-19T09:00:12;16.10;99.90
10278;DHT22;5184;51.376;7.148;2023-09-19T09:02:39;16.10;99.90
10278;DHT22;5184;51.376;7.148;2023-09-19T09:05:08;16.20;99.90
10278;DHT22;5184;51.376;7.148;2023-09-19T09:07:35;16.20;99.90
10278;DHT22;5184;51.376;7.148;2023-09-19T09:10:02;16.20;99.90
10278;DHT22;5184;51.376;7.148;2023-09-19T09:12:27;16.30;99.90
10278;DHT22;5184;51.376;7.148;2023-09-19T09:14:54;16.30;99.90
10278;DHT22;5184;51.376;7.148;2023-09-19T09:17:22;16.40;99.90
10278;DHT22;5184;51.376;7.148;2023-09-19T09:19:49;16.50;99.90
10278;DHT22;5184;51.376;7.148;2023-09-19T09:22:16;16.40;99.90
10278;DHT22;5184;51.376;7.148;2023-09-19T09:24:54;16.30;99.90
10278;DHT22;5184;51.376;7.148;2023-09-19T09:27:21;16.60;99.90
10278;DHT22;5184;51.376;7.148;2023-09-19T09:29:48;16.70;99.90
10278;DHT22;5184;51.376;7.148;2023-09-19T09:32:17;16.80;99.90
10278;DHT22;5184;51.376;7.148;2023-09-19T09:34:44;16.90;99.90
10278;DHT22;5184;51.376;7.148;2023-09-19T09:37:15;16.90;99.90
10278;DHT22;5184;51.376;7.148;2023-09-19T09:39:42;17.00;99.90
10278;DHT22;5184;51.376;7.148;2023-09-19T09:42:08;17.10;99.90
10278;DHT22;5184;51.376;7.148;2023-09-19T09:44:34;17.10;99.90
10278;DHT22;5184;51.376;7.148;2023-09-19T09:47:01;17.10;99.90
10278;DHT22;5184;51.376;7.148;2023-09-19T09:49:47;17.10;99.90
10278;DHT22;5184;51.376;7.148;2023-09-19T09:52:14;17.20;99.90
10278;DHT22;5184;51.376;7.148;2023-09-19T09:54:59;17.30;99.90
10278;DHT22;5184;51.376;7.148;2023-09-19T09:57:26;17.20;99.90
10278;DHT22;5184;51.376;7.148;2023-09-19T09:59:55;17.20;99.90
10278;DHT22;5184;51.376;7.148;2023-09-19T10:02:29;17.20;99.50
10278;DHT22;5184;51.376;7.148;2023-09-19T10:04:55;17.20;99.90
10278;DHT22;5184;51.376;7.148;2023-09-19T10:07:25;17.20;99.90
10278;DHT22;5184;51.376;7.148;2023-09-19T10:09:51;17.20;99.30
10278;DHT22;5184;51.376;7.148;2023-09-19T10:12:18;17.20;91.70
10278;DHT22;5184;51.376;7.148;2023-09-19T10:14:45;17.30;91.80
10278;DHT22;5184;51.376;7.148;2023-09-19T10:17:11;17.40;96.20
10278;DHT22;5184;51.376;7.148;2023-09-19T10:19:45;17.50;69.40
10278;DHT22;5184;51.376;7.148;2023-09-19T10:22:10;17.40;65.60
10278;DHT22;5184;51.376;7.148;2023-09-19T10:24:36;17.50;57.70
10278;DHT22;5184;51.376;7.148;2023-09-19T10:27:03;17.60;60.70
10278;DHT22;5184;51.376;7.148;2023-09-19T10:29:29;17.70;58.40
10278;DHT22;5184;51.376;7.148;2023-09-19T10:31:56;17.70;44.40
10278;DHT22;5184;51.376;7.148;2023-09-19T10:34:23;17.60;42.30
10278;DHT22;5184;51.376;7.148;2023-09-19T10:36:49;17.50;46.20
10278;DHT22;5184;51.376;7.148;2023-09-19T10:39:17;17.30;48.90
10278;DHT22;5184;51.376;7.148;2023-09-19T10:41:50;17.40;43.10
10278;DHT22;5184;51.376;7.148;2023-09-19T10:44:17;17.50;61.50
10278;DHT22;5184;51.376;7.148;2023-09-19T10:46:44;17.50;42.70
10278;DHT22;5184;51.376;7.148;2023-09-19T10:49:11;17.50;57.90
10278;DHT22;5184;51.376;7.148;2023-09-19T10:51:40;17.50;11.20
10278;DHT22;5184;51.376;7.148;2023-09-19T10:54:08;17.50;5.50
10278;DHT22;5184;51.376;7.148;2023-09-19T10:56:34;17.30;2.70
10278;DHT22;5184;51.376;7.148;2023-09-19T10:59:06;17.50;3.40
10278;DHT22;5184;51.376;7.148;2023-09-19T11:01:43;17.40;1.00
10278;DHT22;5184;51.376;7.148;2023-09-19T11:04:32;18.00;1.00
10278;DHT22;5184;51.376;7.148;2023-09-19T11:07:01;18.10;1.00
10278;DHT22;5184;51.376;7.148;2023-09-19T11:12:07;18.20;1.00
10278;DHT22;5184;51.376;7.148;2023-09-19T11:14:38;18.20;1.00
10278;DHT22;5184;51.376;7.148;2023-09-19T11:17:29;18.20;1.00
10278;DHT22;5184;51.376;7.148;2023-09-19T11:22:52;18.20;1.00
10278;DHT22;5184;51.376;7.148;2023-09-19T11:24:54;18.20;1.00
10278;DHT22;5184;51.376;7.148;2023-09-19T11:27:21;18.40;1.00
10278;DHT22;5184;51.376;7.148;2023-09-19T11:29:48;18.50;1.00
10278;DHT22;5184;51.376;7.148;2023-09-19T11:32:14;18.60;1.00
10278;DHT22;5184;51.376;7.148;2023-09-19T11:34:42;18.60;1.00
10278;DHT22;5184;51.376;7.148;2023-09-19T11:38:00;18.30;1.00
10278;DHT22;5184;51.376;7.148;2023-09-19T11:40:11;18.30;1.00
10278;DHT22;5184;51.376;7.148;2023-09-19T11:42:43;18.30;1.00
10278;DHT22;5184;51.376;7.148;2023-09-19T11:47:49;18.60;1.00
10278;DHT22;5184;51.376;7.148;2023-09-19T11:50:18;18.70;1.00
10278;DHT22;5184;51.376;7.148;2023-09-19T11:52:44;18.60;1.00
10278;DHT22;5184;51.376;7.148;2023-09-19T11:55:11;18.60;1.00
10278;DHT22;5184;51.376;7.148;2023-09-19T11:57:37;18.70;1.00
10278;DHT22;5184;51.376;7.148;2023-09-19T12:00:04;18.80;1.00
10278;DHT22;5184;51.376;7.148;2023-09-19T12:02:35;18.90;1.00
10278;DHT22;5184;51.376;7.148;2023-09-19T12:04:58;18.80;1.00
10278;DHT22;5184;51.376;7.148;2023-09-19T12:07:24;18.90;1.00
10278;DHT22;5184;51.376;7.148;2023-09-19T12:10:02;19.10;1.00
10278;DHT22;5184;51.376;7.148;2023-09-19T12:12:22;19.10;1.00
10278;DHT22;5184;51.376;7.148;2023-09-19T12:14:49;19.00;1.00
10278;DHT22;5184;51.376;7.148;2023-09-19T12:17:15;19.00;1.00
10278;DHT22;5184;51.376;7.148;2023-09-19T12:22:14;18.80;1.00
10278;DHT22;5184;51.376;7.148;2023-09-19T12:24:41;18.90;1.00
10278;DHT22;5184;51.376;7.148;2023-09-19T12:27:07;18.90;1.00
10278;DHT22;5184;51.376;7.148;2023-09-19T12:29:44;19.00;1.00
10278;DHT22;5184;51.376;7.148;2023-09-19T12:32:10;19.00;1.00
10278;DHT22;5184;51.376;7.148;2023-09-19T12:34:37;19.20;1.00
10278;DHT22;5184;51.376;7.148;2023-09-19T12:37:05;19.40;1.00
10278;DHT22;5184;51.376;7.148;2023-09-19T12:39:32;19.50;1.00
10278;DHT22;5184;51.376;7.148;2023-09-19T12:41:59;19.50;1.00
10278;DHT22;5184;51.376;7.148;2023-09-19T12:44:25;19.40;1.00
10278;DHT22;5184;51.376;7.148;2023-09-19T12:46:52;19.30;1.00
10278;DHT22;5184;51.376;7.148;2023-09-19T12:49:19;19.40;1.00
10278;DHT22;5184;51.376;7.148;2023-09-19T12:51:46;19.50;1.00
10278;DHT22;5184;51.376;7.148;2023-09-19T12:54:13;19.60;1.00
10278;DHT22;5184;51.376;7.148;2023-09-19T12:56:43;19.60;1.00
10278;DHT22;5184;51.376;7.148;2023-09-19T12:59:12;19.60;1.00
10278;DHT22;5184;51.376;7.148;2023-09-19T13:01:39;19.70;1.00
10278;DHT22;5184;51.376;7.148;2023-09-19T13:04:13;19.80;1.00
10278;DHT22;5184;51.376;7.148;2023-09-19T13:06:39;19.90;1.00
10278;DHT22;5184;51.376;7.148;2023-09-19T13:09:07;19.90;1.00
10278;DHT22;5184;51.376;7.148;2023-09-19T13:11:35;19.80;1.00
10278;DHT22;5184;51.376;7.148;2023-09-19T13:14:13;20.10;99.90
10278;DHT22;5184;51.376;7.148;2023-09-19T13:19:34;20.20;99.90
10278;DHT22;5184;51.376;7.148;2023-09-19T13:21:43;20.20;99.90
10278;DHT22;5184;51.376;7.148;2023-09-19T13:24:25;20.40;99.90
10278;DHT22;5184;51.376;7.148;2023-09-19T13:26:52;20.40;99.90
10278;DHT22;5184;51.376;7.148;2023-09-19T13:29:19;20.50;99.90
10278;DHT22;5184;51.376;7.148;2023-09-19T13:31:50;20.50;99.90
10278;DHT22;5184;51.376;7.148;2023-09-19T13:34:17;20.40;99.90
10278;DHT22;5184;51.376;7.148;2023-09-19T13:36:44;20.30;99.90
10278;DHT22;5184;51.376;7.148;2023-09-19T13:39:11;20.20;99.90
10278;DHT22;5184;51.376;7.148;2023-09-19T13:41:39;20.20;99.90
10278;DHT22;5184;51.376;7.148;2023-09-19T13:44:05;20.10;1.00
10278;DHT22;5184;51.376;7.148;2023-09-19T13:46:32;20.20;1.00
10278;DHT22;5184;51.376;7.148;2023-09-19T13:48:59;20.30;99.90
10278;DHT22;5184;51.376;7.148;2023-09-19T13:51:26;20.40;99.90
10278;DHT22;5184;51.376;7.148;2023-09-19T13:53:53;20.40;99.90
10278;DHT22;5184;51.376;7.148;2023-09-19T13:56:20;20.40;1.00
10278;DHT22;5184;51.376;7.148;2023-09-19T13:58:46;20.20;1.00
10278;DHT22;5184;51.376;7.148;2023-09-19T14:01:13;20.20;1.00
10278;DHT22;5184;51.376;7.148;2023-09-19T14:03:40;20.00;1.00
10278;DHT22;5184;51.376;7.148;2023-09-19T14:06:06;19.70;1.00
10278;DHT22;5184;51.376;7.148;2023-09-19T14:08:33;19.80;1.00
10278;DHT22;5184;51.376;7.148;2023-09-19T14:11:05;19.80;1.00
10278;DHT22;5184;51.376;7.148;2023-09-19T14:13:27;19.50;1.00
10278;DHT22;5184;51.376;7.148;2023-09-19T14:15:54;19.40;1.00
10278;DHT22;5184;51.376;7.148;2023-09-19T14:18:21;19.40;1.00
10278;DHT22;5184;51.376;7.148;2023-09-19T14:20:49;19.40;1.00
10278;DHT22;5184;51.376;7.148;2023-09-19T14:23:16;19.40;1.00
10278;DHT22;5184;51.376;7.148;2023-09-19T14:25:43;19.40;1.00
10278;DHT22;5184;51.376;7.148;2023-09-19T14:28:11;19.40;1.00
10278;DHT22;5184;51.376;7.148;2023-09-19T14:30:38;19.40;1.00
10278;DHT22;5184;51.376;7.148;2023-09-19T14:33:06;19.40;1.00
10278;DHT22;5184;51.376;7.148;2023-09-19T14:35:33;19.40;1.00
10278;DHT22;5184;51.376;7.148;2023-09-19T14:37:59;19.40;1.00
10278;DHT22;5184;51.376;7.148;2023-09-19T14:40:26;19.40;1.00
10278;DHT22;5184;51.376;7.148;2023-09-19T14:42:53;19.40;1.00
10278;DHT22;5184;51.376;7.148;2023-09-19T14:45:19;19.40;1.00
10278;DHT22;5184;51.376;7.148;2023-09-19T14:47:46;19.30;1.00
10278;DHT22;5184;51.376;7.148;2023-09-19T14:50:12;19.30;1.00
10278;DHT22;5184;51.376;7.148;2023-09-19T14:52:39;19.30;1.00
10278;DHT22;5184;51.376;7.148;2023-09-19T14:55:07;19.40;1.00
10278;DHT22;5184;51.376;7.148;2023-09-19T14:57:33;19.30;1.00
10278;DHT22;5184;51.376;7.148;2023-09-19T15:00:00;19.40;1.00
10278;DHT22;5184;51.376;7.148;2023-09-19T15:02:26;19.40;1.00
10278;DHT22;5184;51.376;7.148;2023-09-19T15:04:53;19.30;1.00
10278;DHT22;5184;51.376;7.148;2023-09-19T15:07:19;19.30;1.00
10278;DHT22;5184;51.376;7.148;2023-09-19T15:09:46;19.30;1.00
10278;DHT22;5184;51.376;7.148;2023-09-19T15:12:14;19.30;1.00
10278;DHT22;5184;51.376;7.148;2023-09-19T15:14:41;19.20;1.00
10278;DHT22;5184;51.376;7.148;2023-09-19T15:17:07;19.20;1.00
10278;DHT22;5184;51.376;7.148;2023-09-19T15:19:34;19.20;1.00
10278;DHT22;5184;51.376;7.148;2023-09-19T15:22:01;19.10;1.00
10278;DHT22;5184;51.376;7.148;2023-09-19T15:24:28;18.90;1.00
10278;DHT22;5184;51.376;7.148;2023-09-19T15:26:55;18.90;1.00
10278;DHT22;5184;51.376;7.148;2023-09-19T15:29:23;18.90;1.00
10278;DHT22;5184;51.376;7.148;2023-09-19T15:31:50;18.90;1.00
10278;DHT22;5184;51.376;7.148;2023-09-19T15:34:17;18.90;1.00
10278;DHT22;5184;51.376;7.148;2023-09-19T15:36:45;18.80;1.00
10278;DHT22;5184;51.376;7.148;2023-09-19T15:39:11;18.80;1.00
10278;DHT22;5184;51.376;7.148;2023-09-19T15:41:39;18.80;1.00
10278;DHT22;5184;51.376;7.148;2023-09-19T15:44:10;18.80;1.00
10278;DHT22;5184;51.376;7.148;2023-09-19T15:46:32;18.80;1.00
10278;DHT22;5184;51.376;7.148;2023-09-19T15:48:58;18.80;1.00
10278;DHT22;5184;51.376;7.148;2023-09-19T15:51:24;18.80;1.00
10278;DHT22;5184;51.376;7.148;2023-09-19T15:53:52;18.90;1.00
10278;DHT22;5184;51.376;7.148;2023-09-19T15:56:19;19.00;1.00
10278;DHT22;5184;51.376;7.148;2023-09-19T15:58:48;19.00;1.00
10278;DHT22;5184;51.376;7.148;2023-09-19T16:01:14;19.20;1.00
10278;DHT22;5184;51.376;7.148;2023-09-19T16:03:45;19.20;1.00
10278;DHT22;5184;51.376;7.148;2023-09-19T16:06:11;19.20;1.00
10278;DHT22;5184;51.376;7.148;2023-09-19T16:08:41;19.10;1.00
10278;DHT22;5184;51.376;7.148;2023-09-19T16:11:09;19.00;1.00